Solon, Iowa
Current Conditions -  °F | °C
As of 3:08 PM on Friday 24 Oct 2014 (Local Time) from KCID Reporting Station
Overcast Overcast  
Wind Chill: 17°   Ceiling: 4500
Heat Index: 17°   Visibility: 9mi
Dew Point: 14°   Wind: 9mph
Humidity: 86%   Direction: 170°S
Pressure: 29.89"   Gusts: NA
Location:  41.81°N, 91.49°W
Report Text: KCID 242008Z 17008KT 9SM SCT013 OVC045 17/14 A2989 RMK AO2 T01670144
Loading
Personal Weather Stations






























Interactive Weather Map New forecast layout! Learn more

10-Day Weather Forecast

Advertisements
Track Severe Weather on mobile